sensor_id;sensor_type;location;lat;lon;timestamp;pressure;altitude;pressure_sealevel;temperature;humidity
64095;BME280;50353;51.420;5.682;2023-05-10T00:01:37;100567.56;;;14.52;100.00
64095;BME280;50353;51.420;5.682;2023-05-10T00:04:02;100572.91;;;14.41;100.00
64095;BME280;50353;51.420;5.682;2023-05-10T00:06:28;100569.25;;;14.53;100.00
64095;BME280;50353;51.420;5.682;2023-05-10T00:08:53;100572.44;;;14.36;100.00
64095;BME280;50353;51.420;5.682;2023-05-10T00:11:18;100572.91;;;14.41;100.00
64095;BME280;50353;51.420;5.682;2023-05-10T00:13:44;100575.41;;;14.65;100.00
64095;BME280;50353;51.420;5.682;2023-05-10T00:16:09;100572.88;;;14.52;100.00
64095;BME280;50353;51.420;5.682;2023-05-10T00:18:34;100576.06;;;14.35;100.00
64095;BME280;50353;51.420;5.682;2023-05-10T00:21:00;100561.09;;;13.89;100.00
64095;BME280;50353;51.420;5.682;2023-05-10T00:23:25;100564.34;;;13.81;100.00
64095;BME280;50353;51.420;5.682;2023-05-10T00:25:50;100567.22;;;14.23;100.00
64095;BME280;50353;51.420;5.682;2023-05-10T00:28:16;100565.66;;;14.32;100.00
64095;BME280;50353;51.420;5.682;2023-05-10T00:30:41;100565.06;;;14.06;100.00
64095;BME280;50353;51.420;5.682;2023-05-10T00:33:06;100561.22;;;13.87;100.00
64095;BME280;50353;51.420;5.682;2023-05-10T00:35:31;100566.88;;;13.82;100.00
64095;BME280;50353;51.420;5.682;2023-05-10T00:37:57;100560.84;;;13.92;100.00
64095;BME280;50353;51.420;5.682;2023-05-10T00:40:22;100559.19;;;14.02;100.00
64095;BME280;50353;51.420;5.682;2023-05-10T00:42:47;100560.13;;;13.78;100.00
64095;BME280;50353;51.420;5.682;2023-05-10T00:45:13;100553.47;;;13.73;100.00
64095;BME280;50353;51.420;5.682;2023-05-10T00:47:39;100564.47;;;13.79;100.00
64095;BME280;50353;51.420;5.682;2023-05-10T00:50:05;100558.44;;;13.66;100.00
64095;BME280;50353;51.420;5.682;2023-05-10T00:52:31;100559.41;;;13.76;100.00
64095;BME280;50353;51.420;5.682;2023-05-10T00:54:57;100553.25;;;13.87;100.00
64095;BME280;50353;51.420;5.682;2023-05-10T00:57:22;100559.28;;;13.89;100.00
64095;BME280;50353;51.420;5.682;2023-05-10T00:59:48;100554.81;;;14.12;100.00
64095;BME280;50353;51.420;5.682;2023-05-10T01:02:13;100557.97;;;14.06;100.00
64095;BME280;50353;51.420;5.682;2023-05-10T01:04:39;100558.31;;;13.90;100.00
64095;BME280;50353;51.420;5.682;2023-05-10T01:07:04;100556.38;;;14.03;100.00
64095;BME280;50353;51.420;5.682;2023-05-10T01:09:30;100566.19;;;14.03;100.00
64095;BME280;50353;51.420;5.682;2023-05-10T01:11:56;100557.22;;;14.04;100.00
64095;BME280;50353;51.420;5.682;2023-05-10T01:14:21;100566.41;;;14.23;100.00
64095;BME280;50353;51.420;5.682;2023-05-10T01:16:48;100556.09;;;14.41;100.00
64095;BME280;50353;51.420;5.682;2023-05-10T01:19:19;100562.06;;;14.10;100.00
64095;BME280;50353;51.420;5.682;2023-05-10T01:33:00;100559.41;;;13.88;100.00
64095;BME280;50353;51.420;5.682;2023-05-10T01:38:07;100550.50;;;13.77;100.00
64095;BME280;50353;51.420;5.682;2023-05-10T01:40:48;100544.19;;;13.67;100.00
64095;BME280;50353;51.420;5.682;2023-05-10T01:43:23;100555.56;;;13.80;100.00
64095;BME280;50353;51.420;5.682;2023-05-10T01:46:01;100555.31;;;13.95;100.00
64095;BME280;50353;51.420;5.682;2023-05-10T01:48:29;100559.75;;;14.06;100.00
64095;BME280;50353;51.420;5.682;2023-05-10T01:50:56;100554.59;;;13.93;100.00
64095;BME280;50353;51.420;5.682;2023-05-10T01:53:23;100552.44;;;13.86;100.00
64095;BME280;50353;51.420;5.682;2023-05-10T01:55:52;100562.06;;;13.65;100.00
64095;BME280;50353;51.420;5.682;2023-05-10T01:58:22;100554.84;;;13.90;100.00
64095;BME280;50353;51.420;5.682;2023-05-10T02:00:50;100554.19;;;13.97;100.00
64095;BME280;50353;51.420;5.682;2023-05-10T02:03:18;100561.47;;;13.95;100.00
64095;BME280;50353;51.420;5.682;2023-05-10T02:05:48;100556.53;;;13.91;100.00
64095;BME280;50353;51.420;5.682;2023-05-10T02:08:15;100560.75;;;13.82;100.00
64095;BME280;50353;51.420;5.682;2023-05-10T02:10:42;100557.84;;;14.08;100.00
64095;BME280;50353;51.420;5.682;2023-05-10T02:13:10;100567.38;;;14.22;100.00
64095;BME280;50353;51.420;5.682;2023-05-10T02:15:36;100570.50;;;14.27;100.00
64095;BME280;50353;51.420;5.682;2023-05-10T02:18:03;100569.16;;;14.32;100.00
64095;BME280;50353;51.420;5.682;2023-05-10T02:20:31;100571.75;;;14.11;100.00
64095;BME280;50353;51.420;5.682;2023-05-10T02:22:57;100574.72;;;14.29;100.00
64095;BME280;50353;51.420;5.682;2023-05-10T02:25:24;100572.44;;;14.13;100.00
64095;BME280;50353;51.420;5.682;2023-05-10T02:27:51;100578.88;;;13.88;100.00
64095;BME280;50353;51.420;5.682;2023-05-10T02:30:19;100575.00;;;13.92;100.00
64095;BME280;50353;51.420;5.682;2023-05-10T02:32:45;100580.66;;;14.10;100.00
64095;BME280;50353;51.420;5.682;2023-05-10T02:35:11;100579.84;;;14.10;100.00
64095;BME280;50353;51.420;5.682;2023-05-10T02:37:38;100580.75;;;14.31;100.00
64095;BME280;50353;51.420;5.682;2023-05-10T02:40:05;100578.72;;;14.35;100.00
64095;BME280;50353;51.420;5.682;2023-05-10T02:42:32;100584.50;;;14.40;100.00
64095;BME280;50353;51.420;5.682;2023-05-10T02:45:01;100580.63;;;14.44;100.00
64095;BME280;50353;51.420;5.682;2023-05-10T02:47:28;100587.59;;;14.68;100.00
64095;BME280;50353;51.420;5.682;2023-05-10T02:49:54;100588.63;;;14.88;98.72
64095;BME280;50353;51.420;5.682;2023-05-10T02:52:23;100587.53;;;14.91;100.00
64095;BME280;50353;51.420;5.682;2023-05-10T02:54:52;100593.34;;;14.84;98.98
64095;BME280;50353;51.420;5.682;2023-05-10T02:57:28;100595.47;;;15.02;99.31
64095;BME280;50353;51.420;5.682;2023-05-10T02:59:55;100592.69;;;15.03;96.36
64095;BME280;50353;51.420;5.682;2023-05-10T03:02:20;100589.44;;;15.00;94.96
64095;BME280;50353;51.420;5.682;2023-05-10T03:04:46;100592.53;;;14.61;98.91
64095;BME280;50353;51.420;5.682;2023-05-10T03:07:11;100592.66;;;14.71;99.78
64095;BME280;50353;51.420;5.682;2023-05-10T03:09:37;100591.84;;;15.03;94.79
64095;BME280;50353;51.420;5.682;2023-05-10T03:18:09;100587.59;;;14.68;98.39
64095;BME280;50353;51.420;5.682;2023-05-10T03:20:47;100586.22;;;14.41;99.74
64095;BME280;50353;51.420;5.682;2023-05-10T03:25:46;100588.09;;;14.73;97.28
64095;BME280;50353;51.420;5.682;2023-05-10T03:28:13;100595.84;;;14.53;100.00
64095;BME280;50353;51.420;5.682;2023-05-10T03:30:41;100597.81;;;14.40;100.00
64095;BME280;50353;51.420;5.682;2023-05-10T03:33:07;100593.53;;;14.49;100.00
64095;BME280;50353;51.420;5.682;2023-05-10T03:35:32;100595.50;;;14.35;100.00
64095;BME280;50353;51.420;5.682;2023-05-10T03:37:58;100598.50;;;14.42;99.10
64095;BME280;50353;51.420;5.682;2023-05-10T03:40:23;100607.69;;;14.38;98.27
64095;BME280;50353;51.420;5.682;2023-05-10T03:42:49;100601.09;;;14.21;100.00
64095;BME280;50353;51.420;5.682;2023-05-10T03:45:14;100611.56;;;14.34;100.00
64095;BME280;50353;51.420;5.682;2023-05-10T03:47:40;100610.25;;;14.28;100.00
64095;BME280;50353;51.420;5.682;2023-05-10T03:50:06;100605.22;;;14.14;100.00
64095;BME280;50353;51.420;5.682;2023-05-10T03:52:32;100614.97;;;14.25;100.00
64095;BME280;50353;51.420;5.682;2023-05-10T03:54:58;100607.84;;;14.25;100.00
64095;BME280;50353;51.420;5.682;2023-05-10T03:57:23;100610.84;;;14.43;100.00
64095;BME280;50353;51.420;5.682;2023-05-10T03:59:48;100611.25;;;14.05;100.00
64095;BME280;50353;51.420;5.682;2023-05-10T04:02:14;100611.72;;;14.10;100.00
64095;BME280;50353;51.420;5.682;2023-05-10T04:04:39;100614.94;;;14.47;100.00
64095;BME280;50353;51.420;5.682;2023-05-10T04:07:04;100619.91;;;14.41;100.00
64095;BME280;50353;51.420;5.682;2023-05-10T04:09:30;100616.16;;;14.43;100.00
64095;BME280;50353;51.420;5.682;2023-05-10T04:11:55;100623.91;;;14.35;100.00
64095;BME280;50353;51.420;5.682;2023-05-10T04:14:20;100616.56;;;14.05;100.00
64095;BME280;50353;51.420;5.682;2023-05-10T04:16:46;100617.38;;;14.16;100.00
64095;BME280;50353;51.420;5.682;2023-05-10T04:19:11;100618.38;;;14.15;100.00
64095;BME280;50353;51.420;5.682;2023-05-10T04:21:36;100623.91;;;14.35;99.65
64095;BME280;50353;51.420;5.682;2023-05-10T04:24:02;100621.47;;;14.54;100.00
64095;BME280;50353;51.420;5.682;2023-05-10T04:26:27;100616.91;;;14.00;100.00
64095;BME280;50353;51.420;5.682;2023-05-10T04:28:52;100619.56;;;14.23;100.00
64095;BME280;50353;51.420;5.682;2023-05-10T04:31:18;100620.28;;;14.47;100.00
64095;BME280;50353;51.420;5.682;2023-05-10T04:33:43;100625.81;;;14.56;99.42
64095;BME280;50353;51.420;5.682;2023-05-10T04:36:09;100628.63;;;14.20;100.00
64095;BME280;50353;51.420;5.682;2023-05-10T04:38:34;100630.88;;;14.59;97.93
64095;BME280;50353;51.420;5.682;2023-05-10T04:41:07;100632.97;;;14.44;100.00
64095;BME280;50353;51.420;5.682;2023-05-10T04:43:33;100631.50;;;14.62;97.70
64095;BME280;50353;51.420;5.682;2023-05-10T04:45:59;100629.94;;;14.48;97.74
64095;BME280;50353;51.420;5.682;2023-05-10T04:48:24;100636.41;;;14.90;93.47
64095;BME280;50353;51.420;5.682;2023-05-10T04:50:49;100639.03;;;14.68;97.72
64095;BME280;50353;51.420;5.682;2023-05-10T04:53:15;100635.31;;;14.92;93.50
64095;BME280;50353;51.420;5.682;2023-05-10T04:55:40;100637.16;;;14.80;91.91
64095;BME280;50353;51.420;5.682;2023-05-10T04:58:05;100643.00;;;14.40;98.92
64095;BME280;50353;51.420;5.682;2023-05-10T05:00:31;100630.06;;;14.35;100.00
64095;BME280;50353;51.420;5.682;2023-05-10T05:02:56;100637.69;;;14.29;100.00
64095;BME280;50353;51.420;5.682;2023-05-10T05:05:22;100631.88;;;14.35;99.98
64095;BME280;50353;51.420;5.682;2023-05-10T05:07:47;100637.41;;;14.54;99.06
64095;BME280;50353;51.420;5.682;2023-05-10T05:10:12;100642.88;;;14.42;99.74
64095;BME280;50353;51.420;5.682;2023-05-10T05:12:38;100638.78;;;14.37;99.19
64095;BME280;50353;51.420;5.682;2023-05-10T05:15:03;100649.78;;;14.44;99.20
64095;BME280;50353;51.420;5.682;2023-05-10T05:17:31;100645.41;;;14.43;97.10
64095;BME280;50353;51.420;5.682;2023-05-10T05:19:57;100647.94;;;14.45;97.52
64095;BME280;50353;51.420;5.682;2023-05-10T05:22:22;100650.38;;;14.25;99.12
64095;BME280;50353;51.420;5.682;2023-05-10T05:24:53;100648.06;;;14.20;100.00
64095;BME280;50353;51.420;5.682;2023-05-10T05:27:19;100653.06;;;14.25;100.00
64095;BME280;50353;51.420;5.682;2023-05-10T05:29:47;100658.59;;;14.33;99.94
64095;BME280;50353;51.420;5.682;2023-05-10T05:32:12;100655.94;;;14.45;99.20
64095;BME280;50353;51.420;5.682;2023-05-10T05:34:38;100667.03;;;13.93;100.00
64095;BME280;50353;51.420;5.682;2023-05-10T05:37:03;100662.81;;;14.02;100.00
64095;BME280;50353;51.420;5.682;2023-05-10T05:39:28;100663.72;;;13.78;100.00
64095;BME280;50353;51.420;5.682;2023-05-10T05:41:54;100665.97;;;14.07;100.00
64095;BME280;50353;51.420;5.682;2023-05-10T05:44:19;100664.53;;;14.03;100.00
64095;BME280;50353;51.420;5.682;2023-05-10T05:46:45;100659.44;;;14.45;100.00
64095;BME280;50353;51.420;5.682;2023-05-10T05:49:10;100667.06;;;14.27;100.00
64095;BME280;50353;51.420;5.682;2023-05-10T05:51:35;100678.78;;;14.81;94.83
64095;BME280;50353;51.420;5.682;2023-05-10T05:54:01;100680.41;;;15.05;91.36
64095;BME280;50353;51.420;5.682;2023-05-10T05:56:26;100680.25;;;14.40;98.23
64095;BME280;50353;51.420;5.682;2023-05-10T05:58:52;100680.59;;;14.24;99.80
64095;BME280;50353;51.420;5.682;2023-05-10T06:01:17;100673.94;;;14.30;100.00
64095;BME280;50353;51.420;5.682;2023-05-10T06:03:42;100681.56;;;14.34;99.22
64095;BME280;50353;51.420;5.682;2023-05-10T06:06:07;100691.47;;;14.55;95.93
64095;BME280;50353;51.420;5.682;2023-05-10T06:08:33;100684.81;;;14.61;98.43
64095;BME280;50353;51.420;5.682;2023-05-10T06:10:59;100688.84;;;15.10;94.99
64095;BME280;50353;51.420;5.682;2023-05-10T06:13:24;100690.97;;;14.95;94.28
64095;BME280;50353;51.420;5.682;2023-05-10T06:15:50;100700.78;;;14.72;95.53
64095;BME280;50353;51.420;5.682;2023-05-10T06:18:16;100701.75;;;14.71;95.42
64095;BME280;50353;51.420;5.682;2023-05-10T06:20:41;100703.06;;;14.20;100.00
64095;BME280;50353;51.420;5.682;2023-05-10T06:23:07;100710.47;;;14.62;94.61
64095;BME280;50353;51.420;5.682;2023-05-10T06:25:32;100704.41;;;14.60;96.32
64095;BME280;50353;51.420;5.682;2023-05-10T06:27:57;100699.09;;;14.60;95.76
64095;BME280;50353;51.420;5.682;2023-05-10T06:30:24;100711.16;;;14.18;97.16
64095;BME280;50353;51.420;5.682;2023-05-10T06:32:52;100710.69;;;14.36;94.69
64095;BME280;50353;51.420;5.682;2023-05-10T06:35:18;100714.41;;;13.99;98.55
64095;BME280;50353;51.420;5.682;2023-05-10T06:37:43;100713.91;;;14.06;99.11
64095;BME280;50353;51.420;5.682;2023-05-10T06:40:09;100713.34;;;14.25;97.43
64095;BME280;50353;51.420;5.682;2023-05-10T06:42:34;100719.53;;;13.78;100.00
64095;BME280;50353;51.420;5.682;2023-05-10T06:45:00;100717.19;;;14.09;99.94
64095;BME280;50353;51.420;5.682;2023-05-10T06:47:25;100711.78;;;14.33;97.56
64095;BME280;50353;51.420;5.682;2023-05-10T06:49:50;100730.16;;;14.25;99.67
64095;BME280;50353;51.420;5.682;2023-05-10T06:52:16;100718.19;;;14.42;99.04
64095;BME280;50353;51.420;5.682;2023-05-10T06:54:41;100719.41;;;14.49;96.86
64095;BME280;50353;51.420;5.682;2023-05-10T06:57:06;100724.16;;;14.68;96.09
64095;BME280;50353;51.420;5.682;2023-05-10T06:59:32;100727.28;;;14.85;94.49
64095;BME280;50353;51.420;5.682;2023-05-10T07:01:57;100728.31;;;14.14;99.50
64095;BME280;50353;51.420;5.682;2023-05-10T07:04:22;100742.00;;;14.21;98.02
64095;BME280;50353;51.420;5.682;2023-05-10T07:06:48;100741.03;;;13.75;100.00
64095;BME280;50353;51.420;5.682;2023-05-10T07:09:14;100732.34;;;13.84;100.00
64095;BME280;50353;51.420;5.682;2023-05-10T07:11:39;100741.81;;;14.00;100.00
64095;BME280;50353;51.420;5.682;2023-05-10T07:14:05;100741.28;;;14.53;100.00
64095;BME280;50353;51.420;5.682;2023-05-10T07:16:30;100737.91;;;14.62;98.58
64095;BME280;50353;51.420;5.682;2023-05-10T07:18:56;100743.88;;;14.66;98.84
64095;BME280;50353;51.420;5.682;2023-05-10T07:21:21;100742.38;;;14.84;98.97
64095;BME280;50353;51.420;5.682;2023-05-10T07:23:48;100748.66;;;15.17;95.38
64095;BME280;50353;51.420;5.682;2023-05-10T07:26:14;100741.94;;;14.79;98.70
64095;BME280;50353;51.420;5.682;2023-05-10T07:28:40;100747.16;;;15.25;94.59
64095;BME280;50353;51.420;5.682;2023-05-10T07:31:05;100752.38;;;15.59;93.43
64095;BME280;50353;51.420;5.682;2023-05-10T07:33:31;100749.72;;;15.59;91.66
64095;BME280;50353;51.420;5.682;2023-05-10T07:35:56;100746.84;;;15.50;92.73
64095;BME280;50353;51.420;5.682;2023-05-10T07:38:22;100751.56;;;15.79;89.62
64095;BME280;50353;51.420;5.682;2023-05-10T07:40:47;100752.19;;;15.39;90.45
64095;BME280;50353;51.420;5.682;2023-05-10T07:43:12;100749.63;;;15.05;94.60
64095;BME280;50353;51.420;5.682;2023-05-10T07:45:38;100755.25;;;14.79;96.18
64095;BME280;50353;51.420;5.682;2023-05-10T07:48:03;100769.59;;;14.54;97.68
64095;BME280;50353;51.420;5.682;2023-05-10T07:50:28;100763.69;;;14.96;94.52
64095;BME280;50353;51.420;5.682;2023-05-10T07:52:54;100772.75;;;14.82;95.77
64095;BME280;50353;51.420;5.682;2023-05-10T07:55:19;100771.81;;;14.72;95.98
64095;BME280;50353;51.420;5.682;2023-05-10T07:57:46;100776.84;;;14.86;95.65
64095;BME280;50353;51.420;5.682;2023-05-10T08:00:18;100779.44;;;14.87;97.53
64095;BME280;50353;51.420;5.682;2023-05-10T08:02:43;100781.78;;;15.25;91.58
64095;BME280;50353;51.420;5.682;2023-05-10T08:05:08;100782.44;;;15.49;90.13
64095;BME280;50353;51.420;5.682;2023-05-10T08:07:35;100783.81;;;15.32;91.19
64095;BME280;50353;51.420;5.682;2023-05-10T08:10:00;100787.50;;;15.64;88.93
64095;BME280;50353;51.420;5.682;2023-05-10T08:12:25;100784.63;;;15.44;87.75
64095;BME280;50353;51.420;5.682;2023-05-10T08:14:51;100793.84;;;15.40;87.94
64095;BME280;50353;51.420;5.682;2023-05-10T08:17:16;100791.06;;;15.42;88.47
64095;BME280;50353;51.420;5.682;2023-05-10T08:19:41;100794.41;;;14.88;91.61
64095;BME280;50353;51.420;5.682;2023-05-10T08:22:07;100800.44;;;15.13;90.79
64095;BME280;50353;51.420;5.682;2023-05-10T08:24:32;100798.50;;;15.15;90.33
64095;BME280;50353;51.420;5.682;2023-05-10T08:26:59;100806.50;;;15.59;87.53
64095;BME280;50353;51.420;5.682;2023-05-10T08:29:24;100810.00;;;15.60;85.78
64095;BME280;50353;51.420;5.682;2023-05-10T08:31:50;100819.31;;;15.21;88.58
64095;BME280;50353;51.420;5.682;2023-05-10T08:34:15;100818.69;;;15.41;87.13
64095;BME280;50353;51.420;5.682;2023-05-10T08:36:40;100813.97;;;15.33;88.12
64095;BME280;50353;51.420;5.682;2023-05-10T08:39:06;100814.44;;;15.27;86.89
64095;BME280;50353;51.420;5.682;2023-05-10T08:41:33;100828.47;;;14.61;91.62
64095;BME280;50353;51.420;5.682;2023-05-10T08:43:58;100825.81;;;14.61;93.59
64095;BME280;50353;51.420;5.682;2023-05-10T08:46:26;100824.16;;;15.05;88.95
64095;BME280;50353;51.420;5.682;2023-05-10T08:48:53;100830.13;;;14.39;92.70
64095;BME280;50353;51.420;5.682;2023-05-10T08:51:22;100840.63;;;14.29;94.66
64095;BME280;50353;51.420;5.682;2023-05-10T08:53:49;100835.50;;;14.62;95.51
64095;BME280;50353;51.420;5.682;2023-05-10T08:56:15;100839.38;;;14.58;94.28
64095;BME280;50353;51.420;5.682;2023-05-10T08:58:41;100843.75;;;14.81;93.17
64095;BME280;50353;51.420;5.682;2023-05-10T09:01:07;100846.06;;;14.86;92.27
64095;BME280;50353;51.420;5.682;2023-05-10T09:03:32;100847.75;;;14.64;93.45
64095;BME280;50353;51.420;5.682;2023-05-10T09:05:58;100834.94;;;15.03;91.78
64095;BME280;50353;51.420;5.682;2023-05-10T09:08:24;100842.44;;;15.21;89.11
64095;BME280;50353;51.420;5.682;2023-05-10T09:10:53;100841.56;;;15.32;89.61
64095;BME280;50353;51.420;5.682;2023-05-10T09:13:19;100846.91;;;15.20;90.67
64095;BME280;50353;51.420;5.682;2023-05-10T09:15:46;100852.50;;;15.17;92.19
64095;BME280;50353;51.420;5.682;2023-05-10T09:18:12;100857.22;;;15.02;92.47
64095;BME280;50353;51.420;5.682;2023-05-10T09:20:37;100855.75;;;15.21;91.51
64095;BME280;50353;51.420;5.682;2023-05-10T09:23:03;100861.09;;;14.98;92.18
64095;BME280;50353;51.420;5.682;2023-05-10T09:25:28;100857.16;;;15.36;91.57
64095;BME280;50353;51.420;5.682;2023-05-10T09:27:54;100856.94;;;15.28;92.58
64095;BME280;50353;51.420;5.682;2023-05-10T09:30:25;100852.69;;;15.48;91.64
64095;BME280;50353;51.420;5.682;2023-05-10T09:32:51;100855.78;;;15.65;90.14
64095;BME280;50353;51.420;5.682;2023-05-10T09:35:19;100847.72;;;15.44;91.81
64095;BME280;50353;51.420;5.682;2023-05-10T09:37:47;100857.97;;;15.82;90.70
64095;BME280;50353;51.420;5.682;2023-05-10T09:40:23;100862.88;;;16.19;88.53
64095;BME280;50353;51.420;5.682;2023-05-10T09:42:58;100859.78;;;16.14;87.10
64095;BME280;50353;51.420;5.682;2023-05-10T09:45:27;100865.13;;;16.14;84.08
64095;BME280;50353;51.420;5.682;2023-05-10T09:47:52;100865.56;;;17.14;81.40
64095;BME280;50353;51.420;5.682;2023-05-10T09:50:19;100874.25;;;16.96;82.68
64095;BME280;50353;51.420;5.682;2023-05-10T09:52:52;100876.44;;;16.70;83.08
64095;BME280;50353;51.420;5.682;2023-05-10T09:55:20;100879.00;;;16.29;85.50
64095;BME280;50353;51.420;5.682;2023-05-10T09:57:46;100879.56;;;16.33;85.13
64095;BME280;50353;51.420;5.682;2023-05-10T10:00:18;100882.56;;;15.86;86.31
64095;BME280;50353;51.420;5.682;2023-05-10T10:02:45;100884.19;;;15.98;87.59
64095;BME280;50353;51.420;5.682;2023-05-10T10:05:11;100881.31;;;15.90;86.32
64095;BME280;50353;51.420;5.682;2023-05-10T10:07:36;100880.84;;;15.74;87.17
64095;BME280;50353;51.420;5.682;2023-05-10T10:10:02;100877.09;;;15.87;87.72
64095;BME280;50353;51.420;5.682;2023-05-10T10:12:29;100879.53;;;15.68;88.93
64095;BME280;50353;51.420;5.682;2023-05-10T10:14:55;100874.34;;;16.10;89.55
64095;BME280;50353;51.420;5.682;2023-05-10T10:17:21;100876.28;;;16.08;87.59
64095;BME280;50353;51.420;5.682;2023-05-10T10:19:48;100875.47;;;16.29;85.26
64095;BME280;50353;51.420;5.682;2023-05-10T10:22:13;100875.31;;;16.30;87.19
64095;BME280;50353;51.420;5.682;2023-05-10T10:24:39;100875.88;;;15.92;88.65
64095;BME280;50353;51.420;5.682;2023-05-10T10:30:27;100869.09;;;16.41;84.63
64095;BME280;50353;51.420;5.682;2023-05-10T10:35:33;100875.81;;;16.56;83.71
64095;BME280;50353;51.420;5.682;2023-05-10T10:38:00;100868.88;;;16.75;83.82
64095;BME280;50353;51.420;5.682;2023-05-10T10:40:30;100872.59;;;16.63;83.16
64095;BME280;50353;51.420;5.682;2023-05-10T10:42:56;100869.44;;;16.69;83.14
64095;BME280;50353;51.420;5.682;2023-05-10T10:45:23;100871.06;;;17.12;82.34
64095;BME280;50353;51.420;5.682;2023-05-10T10:48:18;100860.34;;;17.02;80.96
64095;BME280;50353;51.420;5.682;2023-05-10T10:50:45;100870.88;;;17.35;81.32
64095;BME280;50353;51.420;5.682;2023-05-10T10:53:11;100872.56;;;17.36;80.54
64095;BME280;50353;51.420;5.682;2023-05-10T10:55:46;100864.75;;;17.64;79.23
64095;BME280;50353;51.420;5.682;2023-05-10T10:58:29;100863.31;;;17.60;82.27
64095;BME280;50353;51.420;5.682;2023-05-10T11:01:11;100867.22;;;17.36;79.93
64095;BME280;50353;51.420;5.682;2023-05-10T11:03:37;100860.53;;;17.71;78.86
64095;BME280;50353;51.420;5.682;2023-05-10T11:06:03;100860.28;;;18.42;75.53
64095;BME280;50353;51.420;5.682;2023-05-10T11:08:30;100865.59;;;18.72;72.03
64095;BME280;50353;51.420;5.682;2023-05-10T11:13:37;100864.69;;;18.34;76.36
64095;BME280;50353;51.420;5.682;2023-05-10T11:16:23;100860.66;;;18.67;74.91
64095;BME280;50353;51.420;5.682;2023-05-10T11:21:24;100870.75;;;19.31;70.97
64095;BME280;50353;51.420;5.682;2023-05-10T11:23:54;100866.00;;;19.42;71.08
64095;BME280;50353;51.420;5.682;2023-05-10T11:26:22;100872.00;;;18.99;72.40
64095;BME280;50353;51.420;5.682;2023-05-10T11:28:52;100875.81;;;19.34;73.18
64095;BME280;50353;51.420;5.682;2023-05-10T11:31:19;100878.66;;;18.95;69.71
64095;BME280;50353;51.420;5.682;2023-05-10T11:33:46;100871.31;;;20.16;69.73
64095;BME280;50353;51.420;5.682;2023-05-10T11:36:14;100863.94;;;19.82;71.21
64095;BME280;50353;51.420;5.682;2023-05-10T11:38:40;100878.69;;;19.96;67.65
64095;BME280;50353;51.420;5.682;2023-05-10T11:41:08;100865.94;;;20.16;66.92
64095;BME280;50353;51.420;5.682;2023-05-10T11:43:33;100862.06;;;20.37;66.24
64095;BME280;50353;51.420;5.682;2023-05-10T11:45:59;100872.00;;;19.82;69.71
64095;BME280;50353;51.420;5.682;2023-05-10T11:48:25;100875.56;;;19.27;73.07
64095;BME280;50353;51.420;5.682;2023-05-10T11:50:50;100880.22;;;19.25;70.39
64095;BME280;50353;51.420;5.682;2023-05-10T11:53:16;100878.06;;;19.56;68.17
64095;BME280;50353;51.420;5.682;2023-05-10T11:55:41;100877.34;;;18.99;71.64
64095;BME280;50353;51.420;5.682;2023-05-10T11:58:06;100880.34;;;18.86;71.39
64095;BME280;50353;51.420;5.682;2023-05-10T12:00:32;100876.63;;;19.34;71.03
64095;BME280;50353;51.420;5.682;2023-05-10T12:02:57;100875.09;;;19.59;68.27
64095;BME280;50353;51.420;5.682;2023-05-10T12:05:23;100875.00;;;19.51;67.96
64095;BME280;50353;51.420;5.682;2023-05-10T12:07:49;100880.53;;;19.50;70.30
64095;BME280;50353;51.420;5.682;2023-05-10T12:10:14;100876.16;;;19.49;66.53
64095;BME280;50353;51.420;5.682;2023-05-10T12:12:41;100880.19;;;18.97;66.63
64095;BME280;50353;51.420;5.682;2023-05-10T12:15:24;100880.44;;;19.04;67.81
64095;BME280;50353;51.420;5.682;2023-05-10T12:17:50;100882.34;;;18.74;71.83
64095;BME280;50353;51.420;5.682;2023-05-10T12:20:20;100881.84;;;18.31;73.43
64095;BME280;50353;51.420;5.682;2023-05-10T12:22:54;100885.16;;;17.84;73.99
64095;BME280;50353;51.420;5.682;2023-05-10T12:25:22;100884.31;;;18.62;74.41
64095;BME280;50353;51.420;5.682;2023-05-10T12:27:51;100899.81;;;18.88;74.12
64095;BME280;50353;51.420;5.682;2023-05-10T12:30:24;100899.78;;;18.98;71.11
64095;BME280;50353;51.420;5.682;2023-05-10T12:32:50;100892.88;;;19.05;72.47
64095;BME280;50353;51.420;5.682;2023-05-10T12:35:15;100900.69;;;19.54;70.80
64095;BME280;50353;51.420;5.682;2023-05-10T12:37:42;100910.38;;;18.89;69.04
64095;BME280;50353;51.420;5.682;2023-05-10T12:40:08;100906.75;;;18.51;71.44
64095;BME280;50353;51.420;5.682;2023-05-10T12:42:35;100908.19;;;19.13;72.97
64095;BME280;50353;51.420;5.682;2023-05-10T12:45:04;100911.88;;;19.02;70.11
64095;BME280;50353;51.420;5.682;2023-05-10T12:47:30;100913.66;;;19.21;69.63
64095;BME280;50353;51.420;5.682;2023-05-10T12:49:55;100917.91;;;19.14;70.32
64095;BME280;50353;51.420;5.682;2023-05-10T12:52:21;100917.75;;;18.48;72.40
64095;BME280;50353;51.420;5.682;2023-05-10T12:54:46;100913.38;;;18.47;75.12
64095;BME280;50353;51.420;5.682;2023-05-10T12:57:12;100907.50;;;18.34;73.42
64095;BME280;50353;51.420;5.682;2023-05-10T12:59:38;100915.22;;;18.37;73.49
64095;BME280;50353;51.420;5.682;2023-05-10T13:02:04;100925.06;;;18.66;73.84
64095;BME280;50353;51.420;5.682;2023-05-10T13:04:29;100911.00;;;19.11;70.46
64095;BME280;50353;51.420;5.682;2023-05-10T13:06:55;100921.19;;;19.07;72.23
64095;BME280;50353;51.420;5.682;2023-05-10T13:09:27;100918.38;;;19.09;71.54
64095;BME280;50353;51.420;5.682;2023-05-10T13:11:54;100920.25;;;18.89;70.65
64095;BME280;50353;51.420;5.682;2023-05-10T13:14:20;100920.59;;;18.27;73.44
64095;BME280;50353;51.420;5.682;2023-05-10T13:16:46;100925.31;;;18.82;73.12